Hovedside
METAR-TAF:

METAR-TAF

Lufthavner :

Utsunomiya, Japan

breddegrad: 36-31N, lengdegrad: 139-52E, høyde over havet: 102 m

Gjeldene værobservasjon

Denne rapporten ble laget for 16 timer og 8 minutter siden, klokken 06:12 UTC
Vind 11 kt fra Nord med vindkast opp mot 23 kt
Temperatur 28°C
Luftfuktighet 27%
Trykk 1008 hPa
Sikt 10 km eller mer
Få skyer i en høyde av 2000 ft

METAR: RJTU 170612Z 35011G23KT 9999 FEW020 28/07 Q1008 RMK 1CU020 A2976

Tid: 07:20 (22:20 UTC)


TAF: fraværende

Værobservasjoner og værvarsel for over 4000 flyplasser (METAR- og TAF-rapporter).

Tilgjengelige stasjoner er representert av de røde og gule prikkene på kartet.

Hold musepekeren over prikken for å se navnet på stasjonen.

Klikk så for å se værobservasjoner og -varsler.

For å forandre kartet kan du klikke på den grønne knappen med svart kryss for å zoome inn, på den grønne knappen med strek for å zoome ut, eller på de grønne pilene for å se tilstøtende kart.


METAR-TAF: